sensor_id;sensor_type;location;lat;lon;timestamp;P1;durP1;ratioP1;P2;durP2;ratioP2
63555;SDS011;49700;48.072;7.800;2022-10-16T00:01:09;4.22;;;2.40;;
63555;SDS011;49700;48.072;7.800;2022-10-16T00:03:37;5.82;;;2.53;;
63555;SDS011;49700;48.072;7.800;2022-10-16T00:06:04;3.50;;;2.25;;
63555;SDS011;49700;48.072;7.800;2022-10-16T00:08:30;3.17;;;2.55;;
63555;SDS011;49700;48.072;7.800;2022-10-16T00:11:04;3.97;;;2.80;;
63555;SDS011;49700;48.072;7.800;2022-10-16T00:13:31;2.35;;;2.15;;
63555;SDS011;49700;48.072;7.800;2022-10-16T00:15:58;2.28;;;1.75;;
63555;SDS011;49700;48.072;7.800;2022-10-16T00:18:25;2.75;;;2.50;;
63555;SDS011;49700;48.072;7.800;2022-10-16T00:20:51;3.28;;;2.30;;
63555;SDS011;49700;48.072;7.800;2022-10-16T00:23:17;7.67;;;3.20;;
63555;SDS011;49700;48.072;7.800;2022-10-16T00:25:42;5.87;;;4.50;;
63555;SDS011;49700;48.072;7.800;2022-10-16T00:28:08;4.73;;;3.60;;
63555;SDS011;49700;48.072;7.800;2022-10-16T00:30:33;3.80;;;2.83;;
63555;SDS011;49700;48.072;7.800;2022-10-16T00:32:59;7.40;;;3.00;;
63555;SDS011;49700;48.072;7.800;2022-10-16T00:35:24;6.03;;;2.93;;
63555;SDS011;49700;48.072;7.800;2022-10-16T00:37:50;4.17;;;3.00;;
63555;SDS011;49700;48.072;7.800;2022-10-16T00:40:15;3.93;;;2.80;;
63555;SDS011;49700;48.072;7.800;2022-10-16T00:42:41;6.03;;;2.60;;
63555;SDS011;49700;48.072;7.800;2022-10-16T00:45:07;4.40;;;2.40;;
63555;SDS011;49700;48.072;7.800;2022-10-16T00:47:35;3.03;;;2.08;;
63555;SDS011;49700;48.072;7.800;2022-10-16T00:52:52;7.00;;;3.35;;
63555;SDS011;49700;48.072;7.800;2022-10-16T00:55:18;3.92;;;2.67;;
63555;SDS011;49700;48.072;7.800;2022-10-16T00:57:44;2.75;;;2.40;;
63555;SDS011;49700;48.072;7.800;2022-10-16T01:00:11;2.72;;;2.22;;
63555;SDS011;49700;48.072;7.800;2022-10-16T01:02:40;5.60;;;2.47;;
63555;SDS011;49700;48.072;7.800;2022-10-16T01:05:06;2.80;;;2.40;;
63555;SDS011;49700;48.072;7.800;2022-10-16T01:07:45;3.93;;;2.70;;
63555;SDS011;49700;48.072;7.800;2022-10-16T01:13:25;4.88;;;3.30;;
63555;SDS011;49700;48.072;7.800;2022-10-16T01:16:12;2.65;;;2.25;;
63555;SDS011;49700;48.072;7.800;2022-10-16T01:18:54;4.60;;;3.53;;
63555;SDS011;49700;48.072;7.800;2022-10-16T01:21:36;8.68;;;3.50;;
63555;SDS011;49700;48.072;7.800;2022-10-16T01:35:21;5.78;;;3.83;;
63555;SDS011;49700;48.072;7.800;2022-10-16T01:38:08;6.35;;;3.03;;
63555;SDS011;49700;48.072;7.800;2022-10-16T01:40:38;3.53;;;3.20;;
63555;SDS011;49700;48.072;7.800;2022-10-16T01:43:09;4.63;;;3.20;;
63555;SDS011;49700;48.072;7.800;2022-10-16T01:45:39;5.28;;;3.20;;
63555;SDS011;49700;48.072;7.800;2022-10-16T01:48:06;2.85;;;2.60;;
63555;SDS011;49700;48.072;7.800;2022-10-16T01:50:35;4.90;;;3.05;;
63555;SDS011;49700;48.072;7.800;2022-10-16T01:53:05;3.22;;;2.80;;
63555;SDS011;49700;48.072;7.800;2022-10-16T01:55:34;6.60;;;2.30;;
63555;SDS011;49700;48.072;7.800;2022-10-16T01:58:03;4.50;;;2.63;;
63555;SDS011;49700;48.072;7.800;2022-10-16T02:00:32;6.07;;;2.53;;
63555;SDS011;49700;48.072;7.800;2022-10-16T02:02:58;3.05;;;2.33;;
63555;SDS011;49700;48.072;7.800;2022-10-16T02:05:32;3.15;;;2.25;;
63555;SDS011;49700;48.072;7.800;2022-10-16T02:08:03;3.20;;;2.47;;
63555;SDS011;49700;48.072;7.800;2022-10-16T02:10:28;5.47;;;2.70;;
63555;SDS011;49700;48.072;7.800;2022-10-16T02:12:57;4.65;;;3.47;;
63555;SDS011;49700;48.072;7.800;2022-10-16T02:15:31;4.60;;;2.70;;
63555;SDS011;49700;48.072;7.800;2022-10-16T02:17:56;3.47;;;2.37;;
63555;SDS011;49700;48.072;7.800;2022-10-16T02:20:23;4.57;;;2.50;;
63555;SDS011;49700;48.072;7.800;2022-10-16T02:22:52;3.00;;;2.40;;
63555;SDS011;49700;48.072;7.800;2022-10-16T02:25:27;3.42;;;2.70;;
63555;SDS011;49700;48.072;7.800;2022-10-16T02:28:04;4.40;;;2.00;;
63555;SDS011;49700;48.072;7.800;2022-10-16T02:30:38;4.07;;;2.40;;
63555;SDS011;49700;48.072;7.800;2022-10-16T02:33:08;3.40;;;2.35;;
63555;SDS011;49700;48.072;7.800;2022-10-16T02:35:36;3.28;;;2.30;;
63555;SDS011;49700;48.072;7.800;2022-10-16T02:38:03;3.30;;;2.38;;
63555;SDS011;49700;48.072;7.800;2022-10-16T02:40:30;3.30;;;3.00;;
63555;SDS011;49700;48.072;7.800;2022-10-16T02:42:56;3.87;;;2.67;;
63555;SDS011;49700;48.072;7.800;2022-10-16T02:45:23;3.90;;;2.27;;
63555;SDS011;49700;48.072;7.800;2022-10-16T02:47:49;3.10;;;2.20;;
63555;SDS011;49700;48.072;7.800;2022-10-16T02:50:15;2.60;;;2.33;;
63555;SDS011;49700;48.072;7.800;2022-10-16T02:52:41;2.20;;;1.83;;
63555;SDS011;49700;48.072;7.800;2022-10-16T02:55:06;3.63;;;1.97;;
63555;SDS011;49700;48.072;7.800;2022-10-16T02:57:32;3.60;;;2.50;;
63555;SDS011;49700;48.072;7.800;2022-10-16T02:59:57;11.50;;;2.70;;
63555;SDS011;49700;48.072;7.800;2022-10-16T03:02:23;3.10;;;2.63;;
63555;SDS011;49700;48.072;7.800;2022-10-16T03:04:48;4.60;;;2.40;;
63555;SDS011;49700;48.072;7.800;2022-10-16T03:07:14;4.57;;;2.47;;
63555;SDS011;49700;48.072;7.800;2022-10-16T03:09:39;3.40;;;2.27;;
63555;SDS011;49700;48.072;7.800;2022-10-16T03:12:05;3.60;;;2.83;;
63555;SDS011;49700;48.072;7.800;2022-10-16T03:14:30;3.27;;;2.97;;
63555;SDS011;49700;48.072;7.800;2022-10-16T03:16:56;4.57;;;2.13;;
63555;SDS011;49700;48.072;7.800;2022-10-16T03:19:21;4.23;;;2.27;;
63555;SDS011;49700;48.072;7.800;2022-10-16T03:21:46;5.30;;;2.67;;
63555;SDS011;49700;48.072;7.800;2022-10-16T03:24:12;3.97;;;2.90;;
63555;SDS011;49700;48.072;7.800;2022-10-16T03:26:37;6.77;;;2.27;;
63555;SDS011;49700;48.072;7.800;2022-10-16T03:29:03;3.23;;;2.07;;
63555;SDS011;49700;48.072;7.800;2022-10-16T03:31:29;3.90;;;2.53;;
63555;SDS011;49700;48.072;7.800;2022-10-16T03:33:55;4.20;;;2.00;;
63555;SDS011;49700;48.072;7.800;2022-10-16T03:36:23;2.50;;;2.30;;
63555;SDS011;49700;48.072;7.800;2022-10-16T03:38:49;8.97;;;3.10;;
63555;SDS011;49700;48.072;7.800;2022-10-16T03:41:14;3.30;;;3.00;;
63555;SDS011;49700;48.072;7.800;2022-10-16T03:43:40;4.30;;;2.77;;
63555;SDS011;49700;48.072;7.800;2022-10-16T03:46:05;3.73;;;2.30;;
63555;SDS011;49700;48.072;7.800;2022-10-16T03:48:31;4.00;;;2.50;;
63555;SDS011;49700;48.072;7.800;2022-10-16T03:50:57;4.28;;;3.05;;
63555;SDS011;49700;48.072;7.800;2022-10-16T03:53:23;3.53;;;3.17;;
63555;SDS011;49700;48.072;7.800;2022-10-16T03:55:48;4.73;;;2.97;;
63555;SDS011;49700;48.072;7.800;2022-10-16T03:58:14;5.33;;;2.53;;
63555;SDS011;49700;48.072;7.800;2022-10-16T04:00:43;5.70;;;3.07;;
63555;SDS011;49700;48.072;7.800;2022-10-16T04:03:09;5.60;;;3.40;;
63555;SDS011;49700;48.072;7.800;2022-10-16T04:05:35;7.20;;;4.03;;
63555;SDS011;49700;48.072;7.800;2022-10-16T04:08:01;3.67;;;2.53;;
63555;SDS011;49700;48.072;7.800;2022-10-16T04:10:26;4.97;;;3.17;;
63555;SDS011;49700;48.072;7.800;2022-10-16T04:12:51;8.37;;;4.13;;
63555;SDS011;49700;48.072;7.800;2022-10-16T04:15:20;5.50;;;3.00;;
63555;SDS011;49700;48.072;7.800;2022-10-16T04:17:45;4.13;;;3.20;;
63555;SDS011;49700;48.072;7.800;2022-10-16T04:20:11;3.73;;;3.10;;
63555;SDS011;49700;48.072;7.800;2022-10-16T04:22:36;5.30;;;3.27;;
63555;SDS011;49700;48.072;7.800;2022-10-16T04:25:02;4.70;;;3.47;;
63555;SDS011;49700;48.072;7.800;2022-10-16T04:27:28;4.17;;;3.50;;
63555;SDS011;49700;48.072;7.800;2022-10-16T04:29:53;6.00;;;3.83;;
63555;SDS011;49700;48.072;7.800;2022-10-16T04:32:19;4.93;;;3.63;;
63555;SDS011;49700;48.072;7.800;2022-10-16T04:34:44;6.50;;;4.53;;
63555;SDS011;49700;48.072;7.800;2022-10-16T04:37:09;4.97;;;3.90;;
63555;SDS011;49700;48.072;7.800;2022-10-16T04:39:35;6.30;;;3.00;;
63555;SDS011;49700;48.072;7.800;2022-10-16T04:42:00;5.53;;;3.30;;
63555;SDS011;49700;48.072;7.800;2022-10-16T04:44:25;6.97;;;2.90;;
63555;SDS011;49700;48.072;7.800;2022-10-16T04:46:51;2.37;;;2.13;;
63555;SDS011;49700;48.072;7.800;2022-10-16T04:49:17;3.77;;;2.53;;
63555;SDS011;49700;48.072;7.800;2022-10-16T04:51:42;3.63;;;2.33;;
63555;SDS011;49700;48.072;7.800;2022-10-16T04:54:08;3.20;;;2.90;;
63555;SDS011;49700;48.072;7.800;2022-10-16T04:56:34;3.05;;;2.80;;
63555;SDS011;49700;48.072;7.800;2022-10-16T04:59:05;4.53;;;2.80;;
63555;SDS011;49700;48.072;7.800;2022-10-16T05:01:30;3.00;;;2.80;;
63555;SDS011;49700;48.072;7.800;2022-10-16T05:03:56;3.73;;;3.03;;
63555;SDS011;49700;48.072;7.800;2022-10-16T05:06:21;5.03;;;3.70;;
63555;SDS011;49700;48.072;7.800;2022-10-16T05:08:47;9.40;;;3.77;;
63555;SDS011;49700;48.072;7.800;2022-10-16T05:11:12;3.93;;;3.53;;
63555;SDS011;49700;48.072;7.800;2022-10-16T05:13:37;4.57;;;3.70;;
63555;SDS011;49700;48.072;7.800;2022-10-16T05:16:03;3.47;;;3.07;;
63555;SDS011;49700;48.072;7.800;2022-10-16T05:18:28;4.20;;;2.90;;
63555;SDS011;49700;48.072;7.800;2022-10-16T05:20:54;5.97;;;3.47;;
63555;SDS011;49700;48.072;7.800;2022-10-16T05:23:19;4.00;;;3.47;;
63555;SDS011;49700;48.072;7.800;2022-10-16T05:25:51;3.80;;;2.97;;
63555;SDS011;49700;48.072;7.800;2022-10-16T05:28:23;4.38;;;2.97;;
63555;SDS011;49700;48.072;7.800;2022-10-16T05:30:49;4.22;;;2.95;;
63555;SDS011;49700;48.072;7.800;2022-10-16T05:33:14;5.50;;;3.00;;
63555;SDS011;49700;48.072;7.800;2022-10-16T05:35:40;3.83;;;3.43;;
63555;SDS011;49700;48.072;7.800;2022-10-16T05:38:05;4.90;;;3.53;;
63555;SDS011;49700;48.072;7.800;2022-10-16T05:40:31;7.50;;;3.17;;
63555;SDS011;49700;48.072;7.800;2022-10-16T05:42:56;4.77;;;3.43;;
63555;SDS011;49700;48.072;7.800;2022-10-16T05:45:22;6.40;;;3.50;;
63555;SDS011;49700;48.072;7.800;2022-10-16T05:47:47;3.60;;;2.80;;
63555;SDS011;49700;48.072;7.800;2022-10-16T05:50:13;3.93;;;2.80;;
63555;SDS011;49700;48.072;7.800;2022-10-16T05:52:39;3.43;;;3.03;;
63555;SDS011;49700;48.072;7.800;2022-10-16T05:55:04;7.00;;;3.23;;
63555;SDS011;49700;48.072;7.800;2022-10-16T05:57:30;3.53;;;2.97;;
63555;SDS011;49700;48.072;7.800;2022-10-16T05:59:56;10.60;;;3.57;;
63555;SDS011;49700;48.072;7.800;2022-10-16T06:02:21;6.53;;;2.80;;
63555;SDS011;49700;48.072;7.800;2022-10-16T06:04:47;3.37;;;2.73;;
63555;SDS011;49700;48.072;7.800;2022-10-16T06:07:12;2.50;;;2.30;;
63555;SDS011;49700;48.072;7.800;2022-10-16T06:09:37;2.93;;;2.43;;
63555;SDS011;49700;48.072;7.800;2022-10-16T06:12:03;7.63;;;3.23;;
63555;SDS011;49700;48.072;7.800;2022-10-16T06:14:28;3.37;;;2.90;;
63555;SDS011;49700;48.072;7.800;2022-10-16T06:16:54;4.00;;;3.10;;
63555;SDS011;49700;48.072;7.800;2022-10-16T06:19:19;5.63;;;3.17;;
63555;SDS011;49700;48.072;7.800;2022-10-16T06:21:45;6.63;;;2.43;;
63555;SDS011;49700;48.072;7.800;2022-10-16T06:24:10;6.50;;;2.70;;
63555;SDS011;49700;48.072;7.800;2022-10-16T06:26:36;5.93;;;2.87;;
63555;SDS011;49700;48.072;7.800;2022-10-16T06:29:02;3.85;;;2.53;;
63555;SDS011;49700;48.072;7.800;2022-10-16T06:31:28;4.30;;;3.23;;
63555;SDS011;49700;48.072;7.800;2022-10-16T06:33:56;4.07;;;2.97;;
63555;SDS011;49700;48.072;7.800;2022-10-16T06:36:22;4.28;;;2.22;;
63555;SDS011;49700;48.072;7.800;2022-10-16T06:38:49;7.53;;;3.25;;
63555;SDS011;49700;48.072;7.800;2022-10-16T06:41:16;3.37;;;2.63;;
63555;SDS011;49700;48.072;7.800;2022-10-16T06:43:44;4.10;;;2.72;;
63555;SDS011;49700;48.072;7.800;2022-10-16T06:46:11;5.00;;;3.35;;
63555;SDS011;49700;48.072;7.800;2022-10-16T06:48:38;3.47;;;2.80;;
63555;SDS011;49700;48.072;7.800;2022-10-16T06:53:32;6.93;;;3.20;;
63555;SDS011;49700;48.072;7.800;2022-10-16T06:56:09;4.28;;;3.10;;
63555;SDS011;49700;48.072;7.800;2022-10-16T06:58:41;3.33;;;2.55;;
63555;SDS011;49700;48.072;7.800;2022-10-16T07:01:07;11.75;;;3.45;;
63555;SDS011;49700;48.072;7.800;2022-10-16T07:03:35;4.30;;;3.22;;
63555;SDS011;49700;48.072;7.800;2022-10-16T07:06:02;7.43;;;3.47;;
63555;SDS011;49700;48.072;7.800;2022-10-16T07:08:33;3.13;;;2.55;;
63555;SDS011;49700;48.072;7.800;2022-10-16T07:11:04;3.75;;;2.97;;
63555;SDS011;49700;48.072;7.800;2022-10-16T07:13:34;5.13;;;3.20;;
63555;SDS011;49700;48.072;7.800;2022-10-16T07:16:11;5.05;;;3.00;;
63555;SDS011;49700;48.072;7.800;2022-10-16T07:18:41;4.15;;;2.80;;
63555;SDS011;49700;48.072;7.800;2022-10-16T07:21:11;4.68;;;3.22;;
63555;SDS011;49700;48.072;7.800;2022-10-16T07:23:44;4.20;;;3.25;;
63555;SDS011;49700;48.072;7.800;2022-10-16T07:26:10;7.30;;;3.90;;
63555;SDS011;49700;48.072;7.800;2022-10-16T07:28:36;4.53;;;3.00;;
63555;SDS011;49700;48.072;7.800;2022-10-16T07:31:06;4.30;;;3.25;;
63555;SDS011;49700;48.072;7.800;2022-10-16T07:33:34;3.95;;;2.70;;
63555;SDS011;49700;48.072;7.800;2022-10-16T07:36:00;7.90;;;3.50;;
63555;SDS011;49700;48.072;7.800;2022-10-16T07:38:25;4.83;;;3.10;;
63555;SDS011;49700;48.072;7.800;2022-10-16T07:41:07;6.00;;;2.93;;
63555;SDS011;49700;48.072;7.800;2022-10-16T07:43:35;3.70;;;2.60;;
63555;SDS011;49700;48.072;7.800;2022-10-16T07:46:01;4.10;;;2.80;;
63555;SDS011;49700;48.072;7.800;2022-10-16T07:48:28;6.10;;;2.40;;
63555;SDS011;49700;48.072;7.800;2022-10-16T07:51:14;4.47;;;2.85;;
63555;SDS011;49700;48.072;7.800;2022-10-16T07:53:41;3.55;;;3.10;;
63555;SDS011;49700;48.072;7.800;2022-10-16T07:56:07;3.03;;;2.40;;
63555;SDS011;49700;48.072;7.800;2022-10-16T07:58:33;4.68;;;2.40;;
63555;SDS011;49700;48.072;7.800;2022-10-16T08:01:05;6.60;;;2.83;;
63555;SDS011;49700;48.072;7.800;2022-10-16T08:03:33;4.72;;;2.50;;
63555;SDS011;49700;48.072;7.800;2022-10-16T08:05:59;2.90;;;2.50;;
63555;SDS011;49700;48.072;7.800;2022-10-16T08:08:25;3.38;;;2.30;;
63555;SDS011;49700;48.072;7.800;2022-10-16T08:10:51;3.28;;;2.40;;
63555;SDS011;49700;48.072;7.800;2022-10-16T08:13:17;5.33;;;2.20;;
63555;SDS011;49700;48.072;7.800;2022-10-16T08:15:43;8.17;;;3.33;;
63555;SDS011;49700;48.072;7.800;2022-10-16T08:18:10;6.43;;;2.50;;
63555;SDS011;49700;48.072;7.800;2022-10-16T08:20:37;5.10;;;2.58;;
63555;SDS011;49700;48.072;7.800;2022-10-16T08:23:02;7.13;;;3.20;;
63555;SDS011;49700;48.072;7.800;2022-10-16T08:25:28;2.37;;;2.13;;
63555;SDS011;49700;48.072;7.800;2022-10-16T08:27:53;2.37;;;1.80;;
63555;SDS011;49700;48.072;7.800;2022-10-16T08:30:20;6.90;;;2.67;;
63555;SDS011;49700;48.072;7.800;2022-10-16T08:32:46;4.30;;;2.42;;
63555;SDS011;49700;48.072;7.800;2022-10-16T08:35:12;5.07;;;1.80;;
63555;SDS011;49700;48.072;7.800;2022-10-16T08:37:38;4.35;;;3.15;;
63555;SDS011;49700;48.072;7.800;2022-10-16T08:40:04;7.10;;;2.70;;
63555;SDS011;49700;48.072;7.800;2022-10-16T08:43:09;4.45;;;2.67;;
63555;SDS011;49700;48.072;7.800;2022-10-16T08:48:24;3.53;;;1.70;;
63555;SDS011;49700;48.072;7.800;2022-10-16T08:50:56;3.53;;;2.95;;
63555;SDS011;49700;48.072;7.800;2022-10-16T08:53:33;5.20;;;2.50;;
63555;SDS011;49700;48.072;7.800;2022-10-16T08:56:09;2.75;;;2.33;;
63555;SDS011;49700;48.072;7.800;2022-10-16T08:58:35;4.43;;;3.00;;
63555;SDS011;49700;48.072;7.800;2022-10-16T09:01:01;2.13;;;1.93;;
63555;SDS011;49700;48.072;7.800;2022-10-16T09:03:33;2.70;;;2.20;;
63555;SDS011;49700;48.072;7.800;2022-10-16T09:21:45;3.23;;;2.50;;
63555;SDS011;49700;48.072;7.800;2022-10-16T09:24:19;6.30;;;2.93;;
63555;SDS011;49700;48.072;7.800;2022-10-16T09:26:46;3.37;;;2.57;;
63555;SDS011;49700;48.072;7.800;2022-10-16T09:29:13;6.80;;;2.80;;
63555;SDS011;49700;48.072;7.800;2022-10-16T09:31:39;2.87;;;2.60;;
63555;SDS011;49700;48.072;7.800;2022-10-16T09:34:06;3.73;;;2.53;;
63555;SDS011;49700;48.072;7.800;2022-10-16T09:36:54;3.07;;;2.30;;
63555;SDS011;49700;48.072;7.800;2022-10-16T09:39:22;2.10;;;1.90;;
63555;SDS011;49700;48.072;7.800;2022-10-16T09:41:48;5.23;;;2.00;;
63555;SDS011;49700;48.072;7.800;2022-10-16T09:47:00;3.13;;;2.07;;
63555;SDS011;49700;48.072;7.800;2022-10-16T09:49:29;4.53;;;1.93;;
63555;SDS011;49700;48.072;7.800;2022-10-16T09:52:05;4.70;;;1.57;;
63555;SDS011;49700;48.072;7.800;2022-10-16T09:54:37;2.00;;;1.80;;
63555;SDS011;49700;48.072;7.800;2022-10-16T09:57:14;3.80;;;2.43;;
63555;SDS011;49700;48.072;7.800;2022-10-16T09:59:49;8.73;;;2.00;;
63555;SDS011;49700;48.072;7.800;2022-10-16T10:02:17;4.00;;;2.20;;
63555;SDS011;49700;48.072;7.800;2022-10-16T10:04:52;4.00;;;2.25;;
63555;SDS011;49700;48.072;7.800;2022-10-16T10:07:26;3.57;;;2.10;;
63555;SDS011;49700;48.072;7.800;2022-10-16T10:09:58;4.57;;;2.27;;
63555;SDS011;49700;48.072;7.800;2022-10-16T10:12:28;3.87;;;1.97;;
63555;SDS011;49700;48.072;7.800;2022-10-16T10:14:57;3.43;;;3.13;;
63555;SDS011;49700;48.072;7.800;2022-10-16T10:17:29;3.37;;;2.20;;
63555;SDS011;49700;48.072;7.800;2022-10-16T10:19:59;4.03;;;1.97;;
63555;SDS011;49700;48.072;7.800;2022-10-16T10:30:20;1.87;;;1.73;;
63555;SDS011;49700;48.072;7.800;2022-10-16T10:41:00;2.90;;;1.70;;
63555;SDS011;49700;48.072;7.800;2022-10-16T10:46:32;3.80;;;1.80;;
63555;SDS011;49700;48.072;7.800;2022-10-16T10:51:56;2.90;;;2.27;;
63555;SDS011;49700;48.072;7.800;2022-10-16T10:54:51;2.40;;;1.70;;
63555;SDS011;49700;48.072;7.800;2022-10-16T10:57:43;4.57;;;2.03;;
63555;SDS011;49700;48.072;7.800;2022-10-16T11:06:30;1.67;;;1.50;;
63555;SDS011;49700;48.072;7.800;2022-10-16T11:11:50;2.40;;;1.50;;
63555;SDS011;49700;48.072;7.800;2022-10-16T11:14:34;3.70;;;1.67;;
63555;SDS011;49700;48.072;7.800;2022-10-16T11:17:10;2.27;;;1.70;;
63555;SDS011;49700;48.072;7.800;2022-10-16T11:22:35;2.50;;;2.03;;
63555;SDS011;49700;48.072;7.800;2022-10-16T11:25:14;4.20;;;2.60;;
63555;SDS011;49700;48.072;7.800;2022-10-16T11:30:49;3.40;;;1.43;;
63555;SDS011;49700;48.072;7.800;2022-10-16T11:33:25;3.00;;;1.50;;
63555;SDS011;49700;48.072;7.800;2022-10-16T11:41:41;1.60;;;1.50;;
63555;SDS011;49700;48.072;7.800;2022-10-16T11:44:15;4.40;;;1.53;;
63555;SDS011;49700;48.072;7.800;2022-10-16T11:49:50;2.03;;;1.50;;
63555;SDS011;49700;48.072;7.800;2022-10-16T12:00:51;1.87;;;1.33;;
63555;SDS011;49700;48.072;7.800;2022-10-16T12:09:30;2.40;;;1.80;;
63555;SDS011;49700;48.072;7.800;2022-10-16T12:11:57;2.60;;;1.97;;
63555;SDS011;49700;48.072;7.800;2022-10-16T12:19:45;3.87;;;1.70;;
63555;SDS011;49700;48.072;7.800;2022-10-16T12:22:22;4.63;;;1.70;;
63555;SDS011;49700;48.072;7.800;2022-10-16T12:24:50;2.40;;;1.43;;
63555;SDS011;49700;48.072;7.800;2022-10-16T12:27:32;3.33;;;1.70;;
63555;SDS011;49700;48.072;7.800;2022-10-16T12:30:03;2.20;;;1.30;;
63555;SDS011;49700;48.072;7.800;2022-10-16T12:35:01;2.40;;;1.40;;
63555;SDS011;49700;48.072;7.800;2022-10-16T12:37:32;2.03;;;1.83;;
63555;SDS011;49700;48.072;7.800;2022-10-16T12:40:11;3.67;;;1.60;;
63555;SDS011;49700;48.072;7.800;2022-10-16T12:42:38;1.83;;;1.30;;
63555;SDS011;49700;48.072;7.800;2022-10-16T12:47:51;2.80;;;1.63;;
63555;SDS011;49700;48.072;7.800;2022-10-16T12:52:53;5.00;;;1.30;;
63555;SDS011;49700;48.072;7.800;2022-10-16T12:55:19;1.40;;;1.30;;
63555;SDS011;49700;48.072;7.800;2022-10-16T13:06:03;3.63;;;1.30;;
63555;SDS011;49700;48.072;7.800;2022-10-16T13:16:23;2.60;;;1.57;;
63555;SDS011;49700;48.072;7.800;2022-10-16T13:19:04;3.33;;;2.17;;
63555;SDS011;49700;48.072;7.800;2022-10-16T13:21:54;4.13;;;1.40;;
63555;SDS011;49700;48.072;7.800;2022-10-16T13:27:35;1.57;;;1.40;;
63555;SDS011;49700;48.072;7.800;2022-10-16T13:30:19;1.43;;;1.20;;
63555;SDS011;49700;48.072;7.800;2022-10-16T13:32:49;2.50;;;1.50;;
63555;SDS011;49700;48.072;7.800;2022-10-16T13:35:24;1.30;;;1.20;;
63555;SDS011;49700;48.072;7.800;2022-10-16T13:38:13;1.67;;;1.40;;
63555;SDS011;49700;48.072;7.800;2022-10-16T13:40:48;2.10;;;1.10;;
63555;SDS011;49700;48.072;7.800;2022-10-16T13:43:15;8.90;;;1.87;;
63555;SDS011;49700;48.072;7.800;2022-10-16T13:45:51;1.77;;;1.50;;
63555;SDS011;49700;48.072;7.800;2022-10-16T13:48:18;2.33;;;1.97;;
63555;SDS011;49700;48.072;7.800;2022-10-16T13:50:43;1.53;;;1.20;;
63555;SDS011;49700;48.072;7.800;2022-10-16T13:53:13;1.57;;;1.20;;
63555;SDS011;49700;48.072;7.800;2022-10-16T13:55:39;1.53;;;1.40;;
63555;SDS011;49700;48.072;7.800;2022-10-16T13:58:10;1.83;;;1.30;;
63555;SDS011;49700;48.072;7.800;2022-10-16T14:00:38;1.50;;;1.40;;
63555;SDS011;49700;48.072;7.800;2022-10-16T14:03:05;3.43;;;1.50;;
63555;SDS011;49700;48.072;7.800;2022-10-16T14:05:42;3.07;;;1.30;;
63555;SDS011;49700;48.072;7.800;2022-10-16T14:08:14;3.37;;;1.30;;
63555;SDS011;49700;48.072;7.800;2022-10-16T14:10:39;1.50;;;1.30;;
63555;SDS011;49700;48.072;7.800;2022-10-16T14:13:05;5.03;;;1.60;;
63555;SDS011;49700;48.072;7.800;2022-10-16T14:15:33;3.63;;;1.30;;
63555;SDS011;49700;48.072;7.800;2022-10-16T14:18:00;2.20;;;1.30;;
63555;SDS011;49700;48.072;7.800;2022-10-16T14:20:29;1.70;;;1.20;;
63555;SDS011;49700;48.072;7.800;2022-10-16T14:23:03;2.00;;;1.30;;
63555;SDS011;49700;48.072;7.800;2022-10-16T14:25:44;1.57;;;1.40;;
63555;SDS011;49700;48.072;7.800;2022-10-16T14:30:48;2.90;;;1.50;;
63555;SDS011;49700;48.072;7.800;2022-10-16T14:33:20;2.07;;;1.93;;
63555;SDS011;49700;48.072;7.800;2022-10-16T14:35:56;2.07;;;1.40;;
63555;SDS011;49700;48.072;7.800;2022-10-16T14:38:25;1.93;;;1.40;;
63555;SDS011;49700;48.072;7.800;2022-10-16T14:40:51;1.40;;;1.20;;
63555;SDS011;49700;48.072;7.800;2022-10-16T14:43:23;2.20;;;1.70;;
63555;SDS011;49700;48.072;7.800;2022-10-16T14:45:55;1.20;;;1.10;;
63555;SDS011;49700;48.072;7.800;2022-10-16T14:48:21;1.87;;;1.60;;
63555;SDS011;49700;48.072;7.800;2022-10-16T14:50:47;4.87;;;2.23;;
63555;SDS011;49700;48.072;7.800;2022-10-16T14:53:12;1.40;;;1.20;;
63555;SDS011;49700;48.072;7.800;2022-10-16T14:55:38;3.03;;;1.80;;
63555;SDS011;49700;48.072;7.800;2022-10-16T14:58:05;1.63;;;1.30;;
63555;SDS011;49700;48.072;7.800;2022-10-16T15:00:34;2.83;;;1.43;;
63555;SDS011;49700;48.072;7.800;2022-10-16T15:03:00;1.50;;;1.40;;
63555;SDS011;49700;48.072;7.800;2022-10-16T15:05:26;4.00;;;1.47;;
63555;SDS011;49700;48.072;7.800;2022-10-16T15:07:52;1.60;;;1.37;;
63555;SDS011;49700;48.072;7.800;2022-10-16T15:10:19;1.60;;;1.50;;
63555;SDS011;49700;48.072;7.800;2022-10-16T15:12:47;2.87;;;1.47;;
63555;SDS011;49700;48.072;7.800;2022-10-16T15:15:21;2.50;;;1.37;;
63555;SDS011;49700;48.072;7.800;2022-10-16T15:17:52;3.37;;;1.60;;
63555;SDS011;49700;48.072;7.800;2022-10-16T15:20:21;4.13;;;1.50;;
63555;SDS011;49700;48.072;7.800;2022-10-16T15:22:51;2.30;;;1.53;;
63555;SDS011;49700;48.072;7.800;2022-10-16T15:28:08;2.40;;;1.93;;
63555;SDS011;49700;48.072;7.800;2022-10-16T15:30:34;3.70;;;2.07;;
63555;SDS011;49700;48.072;7.800;2022-10-16T15:33:01;5.87;;;1.87;;
63555;SDS011;49700;48.072;7.800;2022-10-16T15:35:28;2.90;;;1.43;;
63555;SDS011;49700;48.072;7.800;2022-10-16T15:37:53;2.17;;;1.60;;
63555;SDS011;49700;48.072;7.800;2022-10-16T15:40:19;4.63;;;2.00;;
63555;SDS011;49700;48.072;7.800;2022-10-16T15:42:45;2.60;;;1.90;;
63555;SDS011;49700;48.072;7.800;2022-10-16T15:45:11;1.83;;;1.40;;
63555;SDS011;49700;48.072;7.800;2022-10-16T15:47:38;2.33;;;2.10;;
63555;SDS011;49700;48.072;7.800;2022-10-16T15:50:04;1.73;;;1.50;;
63555;SDS011;49700;48.072;7.800;2022-10-16T15:52:30;3.20;;;1.80;;
63555;SDS011;49700;48.072;7.800;2022-10-16T15:54:56;2.60;;;2.40;;
63555;SDS011;49700;48.072;7.800;2022-10-16T15:57:22;3.13;;;1.60;;
63555;SDS011;49700;48.072;7.800;2022-10-16T15:59:49;2.00;;;1.60;;
63555;SDS011;49700;48.072;7.800;2022-10-16T16:02:15;4.63;;;1.70;;
63555;SDS011;49700;48.072;7.800;2022-10-16T16:04:40;3.30;;;1.97;;
63555;SDS011;49700;48.072;7.800;2022-10-16T16:07:05;2.90;;;1.80;;
63555;SDS011;49700;48.072;7.800;2022-10-16T16:09:34;4.68;;;2.47;;
63555;SDS011;49700;48.072;7.800;2022-10-16T16:12:00;2.00;;;1.50;;
63555;SDS011;49700;48.072;7.800;2022-10-16T16:14:26;2.23;;;1.80;;
63555;SDS011;49700;48.072;7.800;2022-10-16T16:16:56;6.50;;;2.87;;
63555;SDS011;49700;48.072;7.800;2022-10-16T16:19:22;4.50;;;2.17;;
63555;SDS011;49700;48.072;7.800;2022-10-16T16:21:48;3.53;;;2.10;;
63555;SDS011;49700;48.072;7.800;2022-10-16T16:24:15;4.43;;;2.23;;
63555;SDS011;49700;48.072;7.800;2022-10-16T16:26:41;8.13;;;2.57;;
63555;SDS011;49700;48.072;7.800;2022-10-16T16:29:17;3.83;;;2.73;;
63555;SDS011;49700;48.072;7.800;2022-10-16T16:31:43;5.00;;;2.30;;
63555;SDS011;49700;48.072;7.800;2022-10-16T16:34:08;8.27;;;3.07;;
63555;SDS011;49700;48.072;7.800;2022-10-16T16:36:34;4.00;;;2.50;;
63555;SDS011;49700;48.072;7.800;2022-10-16T16:39:00;12.73;;;3.60;;
63555;SDS011;49700;48.072;7.800;2022-10-16T16:41:27;6.90;;;2.73;;
63555;SDS011;49700;48.072;7.800;2022-10-16T16:43:55;2.47;;;2.00;;
63555;SDS011;49700;48.072;7.800;2022-10-16T16:46:26;3.90;;;2.20;;
63555;SDS011;49700;48.072;7.800;2022-10-16T16:48:52;2.70;;;2.47;;
63555;SDS011;49700;48.072;7.800;2022-10-16T16:51:20;5.07;;;2.70;;
63555;SDS011;49700;48.072;7.800;2022-10-16T16:53:50;4.50;;;1.80;;
63555;SDS011;49700;48.072;7.800;2022-10-16T16:56:18;8.97;;;2.60;;
63555;SDS011;49700;48.072;7.800;2022-10-16T16:58:45;4.90;;;2.63;;
63555;SDS011;49700;48.072;7.800;2022-10-16T17:01:11;3.40;;;2.00;;
63555;SDS011;49700;48.072;7.800;2022-10-16T17:03:37;4.85;;;2.60;;
63555;SDS011;49700;48.072;7.800;2022-10-16T17:06:06;3.87;;;2.07;;
63555;SDS011;49700;48.072;7.800;2022-10-16T17:08:33;2.80;;;2.07;;
63555;SDS011;49700;48.072;7.800;2022-10-16T17:11:00;3.73;;;1.97;;
63555;SDS011;49700;48.072;7.800;2022-10-16T17:13:27;4.33;;;2.80;;
63555;SDS011;49700;48.072;7.800;2022-10-16T17:15:54;5.13;;;2.30;;